Latest Coastal Weather Observations for Gannett Cay

IDQ60701

Issued at 4:05 am EST Tuesday 25 November 2014 (issued every 10 minutes, with the page automatically refreshed every 10 minutes)

About coastal observations | Map of coastal stations | Coastal observations for QLD | Marine services | Other Formats
Station Details ID: 200831 Name: GANNET CAY Lat: -21.98 Lon: 152.47 Height: 2.3 m
Data from the previous 72 hours. | See also: Recent months for locations in Queensland
Date/Time
EST
Temp

°C
Wind Pressure Rain
since 9am
mm
Weather Cloud Vis
km
Sea
Height
m
Swell
Dir
 
Speed
knots
Gust
knots
hPa Trend Height
m
Period
s
Dir
25/04:00am 25.3 E 11 12 1012.9 - - - - - - - - -
25/03:30am 25.3 E 10 11 1012.8 - - - - - - - - -
25/03:29am 25.3 E 10 - 1012.9 - - - - - - - - -
25/03:00am 25.3 E 11 13 1012.8 - - - - - - - - -
25/02:30am 25.3 E 11 12 1012.6 - - - - - - - - -
25/02:29am 25.3 E 11 - 1012.7 - - - - - - - - -
25/02:00am 25.4 E 11 12 1012.8 - - - - - - - - -
25/01:30am 25.3 E 10 11 1013.2 - - - - - - - - -
25/01:29am 25.3 E 10 - 1013.3 - - - - - - - - -
25/01:00am 25.4 E 11 13 1013.6 - - - - - - - - -
25/12:30am 25.3 E 10 12 1014.0 - - - - - - - - -
25/12:29am 25.3 E 10 - 1014.1 - - - - - - - - -
25/12:00am 25.3 E 10 12 1014.1 - - - - - - - - -
 
Date/Time
EST
Temp

°C
Wind Pressure Rain
since 9am
mm
Weather Cloud Vis
km
Sea
Height
m
Swell
Dir
 
Speed
knots
Gust
knots
hPa Trend Height
m
Period
s
Dir
24/11:30pm 25.3 E 12 13 1014.4 - - - - - - - - -
24/11:29pm 25.3 E 12 - 1014.6 - - - - - - - - -
24/11:00pm 25.2 E 11 13 1014.6 - - - - - - - - -
24/10:30pm 25.4 E 12 13 1014.7 - - - - - - - - -
24/10:29pm 25.4 E 12 - 1014.8 - - - - - - - - -
24/10:00pm 25.4 E 14 15 1014.5 - - - - - - - - -
24/09:30pm 25.4 ENE 15 17 1014.5 - - - - - - - - -
24/09:29pm 25.5 ENE 15 - 1014.6 - - - - - - - - -
24/09:00pm 25.4 ENE 13 15 1014.3 - - - - - - - - -
24/08:30pm 25.5 ENE 14 16 1014.2 - - - - - - - - -
24/08:29pm 25.5 ENE 14 - 1014.3 - - - - - - - - -
24/08:00pm 25.4 ENE 14 16 1014.1 - - - - - - - - -
24/07:30pm 25.4 ENE 15 16 1013.8 - - - - - - - - -
24/07:29pm 25.4 ENE 15 - 1013.9 - - - - - - - - -
24/07:00pm 25.3 ENE 15 17 1013.7 - - - - - - - - -
24/06:30pm 25.4 ENE 15 17 1013.6 - - - - - - - - -
24/06:00pm 25.4 E 14 17 1013.5 - - - - - - - - -
24/05:30pm 25.4 E 15 17 1013.2 - - - - - - - - -
24/05:29pm 25.5 E 15 - 1013.3 - - - - - - - - -
24/05:00pm 25.5 ENE 16 18 1013.1 - - - - - - - - -
24/04:30pm 25.5 ENE 17 19 1013.0 - - - - - - - - -
24/04:29pm 25.4 ENE 17 - 1013.1 - - - - - - - - -
24/04:00pm 25.5 ENE 15 17 1013.0 - - - - - - - - -
24/03:30pm 25.6 E 15 17 1013.1 - - - - - - - - -
24/03:29pm 25.6 E 15 - 1013.2 - - - - - - - - -
24/03:00pm 25.6 ENE 15 17 1013.3 - - - - - - - - -
24/02:30pm 25.5 ENE 15 16 1013.6 - - - - - - - - -
24/02:29pm 25.4 ENE 15 - 1013.7 - - - - - - - - -
24/02:00pm 24.9 NE 11 16 1013.9 - - - - - - - - -
24/01:30pm 25.8 E 14 16 1014.1 - - - - - - - - -
24/01:29pm 25.8 E 14 - 1014.2 - - - - - - - - -
24/01:00pm 25.4 E 16 18 1014.3 - - - - - - - - -
24/12:30pm 25.9 E 12 13 1014.8 - - - - - - - - -
24/12:29pm 26.0 E 12 - 1015.0 - - - - - - - - -
24/12:00pm 26.0 E 12 14 1015.2 - - - - - - - - -
24/11:30am 25.8 E 12 14 1015.4 - - - - - - - - -
24/11:29am 25.8 E 12 - 1015.5 - - - - - - - - -
24/11:00am 25.8 E 13 15 1015.7 - - - - - - - - -
24/10:30am 25.9 E 14 16 1015.9 - - - - - - - - -
24/10:29am 25.8 E 14 - 1016.0 - - - - - - - - -
24/10:00am 25.8 E 11 14 1016.1 - - - - - - - - -
24/09:30am 25.5 E 13 15 1016.2 - - - - - - - - -
24/09:29am 25.5 E 13 - 1016.2 - - - - - - - - -
24/09:00am 25.4 E 16 19 1016.1 - - - - - - - - -
24/08:30am 25.4 E 14 16 1016.3 - - - - - - - - -
24/08:29am 25.5 E 15 - 1016.4 - - - - - - - - -
24/08:00am 25.1 E 17 20 1016.2 - - - - - - - - -
24/07:30am 25.7 E 14 16 1015.9 - - - - - - - - -
24/07:29am 25.7 E 14 - 1016.0 - - - - - - - - -
24/07:00am 25.4 ENE 14 17 1015.8 - - - - - - - - -
24/06:30am 25.3 E 16 18 1015.7 - - - - - - - - -
24/06:29am 25.2 E 16 - 1015.7 - - - - - - - - -
24/06:00am 25.4 E 15 18 1015.3 - - - - - - - - -
24/05:30am 25.1 E 15 18 1015.0 - - - - - - - - -
24/05:29am 25.1 E 16 - 1015.1 - - - - - - - - -
24/05:00am 25.1 E 15 17 1014.8 - - - - - - - - -
24/04:30am 25.1 E 16 18 1014.6 - - - - - - - - -
24/04:29am 25.2 E 16 - 1014.7 - - - - - - - - -
24/04:00am 25.1 ENE 16 18 1014.5 - - - - - - - - -
24/03:30am 25.1 ENE 16 18 1014.4 - - - - - - - - -
24/03:29am 25.1 ENE 16 - 1014.5 - - - - - - - - -
24/03:00am 25.2 ENE 16 18 1014.5 - - - - - - - - -
24/02:30am 25.3 ENE 16 17 1014.5 - - - - - - - - -
24/02:29am 25.3 ENE 16 - 1014.6 - - - - - - - - -
24/02:00am 25.3 ENE 15 18 1014.7 - - - - - - - - -
24/01:30am 25.3 ENE 16 18 1014.8 - - - - - - - - -
24/01:29am 25.3 ENE 16 - 1014.9 - - - - - - - - -
24/01:00am 25.4 ENE 17 19 1015.1 - - - - - - - - -
24/12:30am 25.4 NE 16 17 1015.5 - - - - - - - - -
24/12:29am 25.5 NE 15 - 1015.6 - - - - - - - - -
24/12:00am 25.5 ENE 15 17 1015.7 - - - - - - - - -
 
Date/Time
EST
Temp

°C
Wind Pressure Rain
since 9am
mm
Weather Cloud Vis
km
Sea
Height
m
Swell
Dir
 
Speed
knots
Gust
knots
hPa Trend Height
m
Period
s
Dir
23/11:30pm 25.6 ENE 16 18 1015.8 - - - - - - - - -
23/11:29pm 25.6 ENE 15 - 1015.9 - - - - - - - - -
23/11:00pm 25.5 ENE 15 18 1015.8 - - - - - - - - -
23/10:30pm 25.7 ENE 16 18 1015.9 - - - - - - - - -
23/10:29pm 25.7 ENE 16 - 1016.0 - - - - - - - - -
23/10:00pm 25.6 ENE 15 16 1015.8 - - - - - - - - -
23/09:30pm 25.6 ENE 14 16 1015.7 - - - - - - - - -
23/09:29pm 25.6 ENE 14 - 1015.8 - - - - - - - - -
23/09:00pm 25.6 ENE 14 15 1015.6 - - - - - - - - -
23/08:30pm 25.7 ENE 14 16 1015.3 - - - - - - - - -
23/08:29pm 25.6 ENE 14 - 1015.4 - - - - - - - - -
23/08:00pm 25.6 ENE 14 15 1015.1 - - - - - - - - -
23/07:30pm 25.7 E 14 16 1014.9 - - - - - - - - -
23/07:29pm 25.7 E 14 - 1015.0 - - - - - - - - -
23/07:00pm 25.7 E 13 15 1014.8 - - - - - - - - -
23/06:30pm 25.6 E 13 15 1014.6 - - - - - - - - -
23/06:29pm 25.7 E 13 - 1014.7 - - - - - - - - -
23/06:00pm 25.8 E 14 16 1014.4 - - - - - - - - -
23/05:30pm 26.1 E 14 16 1014.3 - - - - - - - - -
23/05:29pm 26.0 E 14 - 1014.3 - - - - - - - - -
23/05:00pm 26.0 E 14 16 1014.1 - - - - - - - - -
23/04:30pm 26.1 ESE 14 15 1014.1 - - - - - - - - -
23/04:29pm 26.3 ESE 13 - 1014.2 - - - - - - - - -
23/04:00pm 26.5 ESE 13 15 1014.1 - - - - - - - - -
23/03:30pm 26.5 ESE 12 14 1014.3 - - - - - - - - -
23/03:29pm 26.4 ESE 13 - 1014.4 - - - - - - - - -
23/03:00pm 26.4 SE 13 14 1014.4 - - - - - - - - -
23/02:30pm 26.4 SE 12 14 1014.7 - - - - - - - - -
23/02:29pm 26.4 SE 12 - 1014.8 - - - - - - - - -
23/02:00pm 26.3 SE 12 13 1014.9 - - - - - - - - -
23/01:30pm 26.4 SE 11 13 1015.3 - - - - - - - - -
23/01:29pm 26.5 SE 11 - 1015.4 - - - - - - - - -
23/01:00pm 26.3 ESE 11 13 1015.6 - - - - - - - - -
23/12:30pm 26.2 ESE 11 13 1015.8 - - - - - - - - -
23/12:29pm 26.2 ESE 12 - 1015.9 - - - - - - - - -
23/12:00pm 26.1 ESE 11 13 1016.0 - - - - - - - - -
23/11:30am 25.9 ESE 12 13 1016.3 - - - - - - - - -
23/11:29am 26.0 ESE 12 - 1016.5 - - - - - - - - -
23/11:00am 26.1 ESE 11 13 1016.6 - - - - - - - - -
23/10:30am 26.0 ESE 11 12 1016.7 - - - - - - - - -
23/10:29am 26.0 ESE 11 - 1016.8 - - - - - - - - -
23/10:00am 25.9 ESE 11 13 1016.6 - - - - - - - - -
23/09:30am 26.0 ESE 10 11 1016.7 - - - - - - - - -
23/09:29am 25.9 ESE 11 - 1016.8 - - - - - - - - -
23/09:00am 25.9 E 11 13 1016.6 - - - - - - - - -
23/08:30am 26.0 ESE 9 10 1016.6 - - - - - - - - -
23/08:29am 26.0 ESE 9 - 1016.7 - - - - - - - - -
23/08:00am 25.9 E 9 11 1016.5 - - - - - - - - -
23/07:30am 25.7 E 10 11 1016.2 - - - - - - - - -
23/07:29am 25.7 E 10 - 1016.3 - - - - - - - - -
23/07:00am 25.6 E 10 11 1015.9 - - - - - - - - -
23/06:30am 25.4 E 10 11 1015.6 - - - - - - - - -
23/06:29am 25.4 E 10 - 1015.7 - - - - - - - - -
23/06:00am 25.2 E 10 11 1015.4 - - - - - - - - -
23/05:30am 25.1 E 10 12 1015.1 - - - - - - - - -
23/05:29am 25.1 E 10 - 1015.2 - - - - - - - - -
23/05:00am 25.0 E 10 11 1014.7 - - - - - - - - -
23/04:30am 25.0 E 10 11 1014.5 - - - - - - - - -
23/04:29am 25.0 E 10 - 1014.6 - - - - - - - - -
23/04:00am 25.0 E 10 11 1014.3 - - - - - - - - -
23/03:30am 25.0 E 11 13 1014.2 - - - - - - - - -
23/03:29am 25.0 E 10 - 1014.3 - - - - - - - - -
23/03:00am 25.0 E 10 11 1014.2 - - - - - - - - -
23/02:30am 25.3 ENE 11 13 1014.1 - - - - - - - - -
23/02:29am 25.2 ENE 11 - 1014.2 - - - - - - - - -
23/02:00am 25.2 E 12 14 1014.1 - - - - - - - - -
23/01:30am 25.2 E 11 13 1014.3 - - - - - - - - -
23/01:29am 25.2 ENE 11 - 1014.4 - - - - - - - - -
23/01:00am 25.2 ENE 13 15 1014.3 - - - - - - - - -
23/12:30am 25.3 ENE 13 15 1014.6 - - - - - - - - -
23/12:29am 25.3 ENE 13 - 1014.7 - - - - - - - - -
23/12:00am 25.5 ENE 12 14 1014.9 - - - - - - - - -
 
Date/Time
EST
Temp

°C
Wind Pressure Rain
since 9am
mm
Weather Cloud Vis
km
Sea
Height
m
Swell
Dir
 
Speed
knots
Gust
knots
hPa Trend Height
m
Period
s
Dir
22/11:30pm 25.5 ENE 12 14 1015.2 - - - - - - - - -
22/11:29pm 25.4 ENE 12 - 1015.3 - - - - - - - - -
22/11:00pm 25.5 ENE 13 14 1015.5 - - - - - - - - -
22/10:30pm 25.5 ENE 13 14 1015.6 - - - - - - - - -
22/10:29pm 25.5 ENE 13 - 1015.7 - - - - - - - - -
22/10:00pm 25.5 ENE 13 15 1015.6 - - - - - - - - -
22/09:30pm 25.6 ENE 13 15 1015.6 - - - - - - - - -
22/09:29pm 25.6 ENE 13 - 1015.7 - - - - - - - - -
22/09:00pm 25.6 ENE 14 16 1015.3 - - - - - - - - -
22/08:30pm 25.6 E 13 15 1015.0 - - - - - - - - -
22/08:29pm 25.6 E 13 - 1015.1 - - - - - - - - -
22/08:00pm 25.6 E 12 14 1014.9 - - - - - - - - -
22/07:30pm 25.8 E 11 12 1014.6 - - - - - - - - -
22/07:29pm 25.7 E 11 - 1014.7 - - - - - - - - -
22/07:00pm 25.7 E 11 12 1014.3 - - - - - - - - -
22/06:30pm 25.7 E 10 11 1014.0 - - - - - - - - -
22/06:29pm 25.7 E 10 - 1014.1 - - - - - - - - -
22/06:00pm 25.7 ENE 10 11 1013.8 - - - - - - - - -
22/05:30pm 25.9 E 10 11 1013.5 - - - - - - - - -
22/05:29pm 25.8 E 10 - 1013.6 - - - - - - - - -
22/05:00pm 26.1 E 8 10 1013.3 - - - - - - - - -
22/04:30pm 26.0 E 9 9 1013.1 - - - - - - - - -
22/04:29pm 25.9 E 9 - 1013.2 - - - - - - - - -
22/04:00pm 26.2 E 8 9 1013.0 - - - - - - - - -
22/03:30pm 26.4 E 9 10 1013.1 - - - - - - - - -
22/03:29pm 26.3 E 9 - 1013.2 - - - - - - - - -
22/03:00pm 26.2 E 7 8 1013.2 - - - - - - - - -
22/02:30pm 26.1 E 7 8 1013.5 - - - - - - - - -
22/02:29pm 26.0 E 7 - 1013.6 - - - - - - - - -
22/02:00pm 26.0 ENE 8 8 1013.9 - - - - - - - - -
22/01:30pm 25.9 ENE 8 9 1014.1 - - - - - - - - -
22/01:29pm 25.9 ENE 8 - 1014.2 - - - - - - - - -
22/01:00pm 25.8 ENE 8 9 1014.4 - - - - - - - - -
22/12:30pm 25.8 ENE 7 8 1014.9 - - - - - - - - -
22/12:29pm 25.8 ENE 7 - 1015.0 - - - - - - - - -
22/12:00pm 25.7 ENE 7 8 1015.2 - - - - - - - - -
22/11:30am 25.7 ENE 7 8 1015.4 - - - - - - - - -
22/11:29am 25.7 ENE 7 - 1015.5 - - - - - - - - -
22/11:00am 25.7 E 7 7 1015.8 - - - - - - - - -
22/10:30am 25.9 E 6 7 1016.0 - - - - - - - - -
22/10:29am 25.9 E 6 - 1016.1 - - - - - - - - -
22/10:00am 25.9 E 7 8 1016.1 - - - - - - - - -
22/09:30am 25.8 ENE 6 7 1016.3 - - - - - - - - -
22/09:29am 25.8 ENE 6 - 1016.4 - - - - - - - - -
22/09:00am 25.8 ENE 6 6 1016.4 - - - - - - - - -
22/08:30am 25.8 ENE 6 7 1016.3 - - - - - - - - -
22/08:29am 25.8 ENE 6 - 1016.4 - - - - - - - - -
22/08:00am 26.0 NE 7 8 1016.0 - - - - - - - - -
22/07:30am 25.9 NE 7 8 1015.8 - - - - - - - - -
22/07:29am 25.8 NE 7 - 1015.9 - - - - - - - - -
22/07:00am 25.8 NE 8 9 1015.4 - - - - - - - - -
22/06:30am 25.8 NE 10 11 1015.0 - - - - - - - - -
22/06:29am 25.7 NE 10 - 1015.1 - - - - - - - - -
22/06:00am 25.5 NNE 10 11 1014.5 - - - - - - - - -
22/05:30am 25.3 NE 11 11 1014.1 - - - - - - - - -
22/05:29am 25.3 NE 11 - 1014.1 - - - - - - - - -
22/05:00am 25.3 NE 12 14 1013.6 - - - - - - - - -
22/04:30am 25.2 NNE 13 14 1013.3 - - - - - - - - -
22/04:29am 25.2 NNE 13 - 1013.4 - - - - - - - - -

Other Formats:

Comma delimited format used in spreadsheet applications
http://www.bom.gov.au/fwo/IDQ60701/IDQ60701.94379.axf

JavaScript Object Notation format (JSON) in row-major order
http://www.bom.gov.au/fwo/IDQ60701/IDQ60701.94379.json